Time;durP1;ratioP1;P1;durP2;ratioP2;P2;SDS_P1;SDS_P2;PMS_P1;PMS_P2;Temp;Humidity;BMP_temperature;BMP_pressure;BME280_temperature;BME280_humidity;BME280_pressure;Samples;Min_cycle;Max_cycle;Signal;HPM_P1;HPM_P2
2022/08/20 00:02:25;;;;;;;7.40;1.95;;;;;;;17.61;48.68;100960.03;5077739;28;20500;-52
2022/08/20 00:04:51;;;;;;;7.65;2.95;;;;;;;17.58;48.53;100955.88;5076674;28;20031;-52
2022/08/20 00:07:18;;;;;;;5.88;1.60;;;;;;;17.53;48.28;100966.59;5077242;28;20033;-54
2022/08/20 00:09:44;;;;;;;7.43;1.42;;;;;;;17.50;49.31;100966.22;5059849;28;20038;-48
2022/08/20 00:12:11;;;;;;;5.40;1.40;;;;;;;17.44;49.08;100964.41;5078014;28;20103;-53
2022/08/20 00:14:38;;;;;;;5.60;1.73;;;;;;;17.40;49.72;100969.44;5076216;28;20127;-53
2022/08/20 00:17:05;;;;;;;4.55;1.17;;;;;;;17.35;49.29;100970.16;5076347;28;20044;-50
2022/08/20 00:19:31;;;;;;;7.45;1.50;;;;;;;17.24;49.94;100954.59;5077015;28;20074;-50
2022/08/20 00:21:56;;;;;;;5.85;1.38;;;;;;;17.19;49.90;100955.28;5076317;28;20427;-52
2022/08/20 00:24:22;;;;;;;9.10;1.67;;;;;;;17.21;51.08;100953.16;5076440;28;20037;-50
2022/08/20 00:26:48;;;;;;;5.78;1.13;;;;;;;17.16;50.17;100949.47;5076048;28;20037;-54
2022/08/20 00:29:15;;;;;;;2.42;0.90;;;;;;;17.09;50.23;100948.72;5076125;28;20032;-50
2022/08/20 00:31:42;;;;;;;6.45;1.67;;;;;;;17.10;50.85;100953.91;5076283;28;20021;-51
2022/08/20 00:34:07;;;;;;;7.32;1.02;;;;;;;17.01;51.39;100947.13;5076491;28;20123;-52
2022/08/20 00:36:33;;;;;;;9.00;1.50;;;;;;;16.92;52.15;100943.88;5076738;28;20485;-49
2022/08/20 00:39:00;;;;;;;8.15;1.42;;;;;;;16.98;52.15;100953.00;5058334;28;20025;-49
2022/08/20 00:41:27;;;;;;;6.32;1.40;;;;;;;16.93;52.48;100950.13;5076264;28;20357;-50
2022/08/20 00:44:12;;;;;;;4.30;1.45;;;;;;;16.88;52.95;100950.78;5076247;28;20028;-51
2022/08/20 00:46:39;;;;;;;5.57;1.40;;;;;;;16.86;53.30;100958.31;5058199;28;20024;-49
2022/08/20 00:49:16;;;;;;;5.88;1.40;;;;;;;16.82;52.77;100955.22;5075584;28;20031;-51
2022/08/20 00:51:49;;;;;;;10.20;1.88;;;;;;;16.75;53.19;100943.59;5075526;28;20417;-49
2022/08/20 00:54:21;;;;;;;4.28;0.98;;;;;;;16.71;52.27;100955.91;5075617;28;20035;-52
2022/08/20 00:56:53;;;;;;;4.97;1.27;;;;;;;16.64;53.53;100952.44;5057630;28;20028;-51
2022/08/20 00:59:24;;;;;;;7.43;1.40;;;;;;;16.60;53.53;100948.50;5076169;28;20024;-51
2022/08/20 01:01:50;;;;;;;5.75;1.10;;;;;;;16.57;53.51;100960.66;5058268;28;20391;-53
2022/08/20 01:04:17;;;;;;;6.93;1.70;;;;;;;16.53;53.51;100954.00;5057699;28;20020;-48
2022/08/20 01:06:43;;;;;;;4.85;1.27;;;;;;;16.51;53.21;100952.56;5075925;28;20035;-50
2022/08/20 01:09:10;;;;;;;4.93;1.17;;;;;;;16.47;54.16;100957.59;5075901;28;20041;-48
2022/08/20 01:11:36;;;;;;;5.05;1.60;;;;;;;16.47;53.77;100964.91;5057453;28;20039;-50
2022/08/20 01:17:00;;;;;;;8.68;1.55;;;;;;;16.31;54.68;100958.97;5043623;28;20027;-50
2022/08/20 01:19:46;;;;;;;7.85;1.65;;;;;;;16.28;55.71;100962.09;5041266;28;20077;-49
2022/08/20 01:25:13;;;;;;;11.27;2.00;;;;;;;16.25;56.04;100960.69;5060031;28;20037;-49
2022/08/20 01:27:39;;;;;;;11.25;1.60;;;;;;;16.20;55.44;100962.38;5075146;28;20024;-51
2022/08/20 01:30:06;;;;;;;5.70;1.17;;;;;;;16.15;55.26;100954.06;5075154;28;20107;-52
2022/08/20 01:32:33;;;;;;;7.00;1.25;;;;;;;16.14;56.22;100965.94;5074848;28;20151;-53
2022/08/20 01:34:59;;;;;;;4.90;1.20;;;;;;;15.98;55.33;100949.16;5074868;28;20407;-52
2022/08/20 01:37:24;;;;;;;7.40;1.48;;;;;;;15.91;56.00;100940.25;5074875;28;20024;-53
2022/08/20 01:39:50;;;;;;;3.92;1.10;;;;;;;16.00;55.54;100960.63;5074621;28;20419;-51
2022/08/20 01:42:41;;;;;;;3.38;0.90;;;;;;;15.99;57.33;100963.53;5075116;28;20056;-51
2022/08/20 01:45:07;;;;;;;10.43;1.65;;;;;;;15.93;56.47;100965.22;5056714;28;20035;-50
2022/08/20 01:47:33;;;;;;;5.57;1.50;;;;;;;15.90;57.04;100957.56;5074598;28;20086;-50
2022/08/20 01:50:06;;;;;;;8.10;1.45;;;;;;;15.89;56.94;100961.31;5074862;28;20036;-50
2022/08/20 01:52:41;;;;;;;4.95;1.17;;;;;;;15.86;57.43;100957.16;5074448;28;20444;-49
2022/08/20 01:55:08;;;;;;;5.88;1.45;;;;;;;15.73;57.11;100959.06;5074373;28;20583;-52
2022/08/20 01:57:36;;;;;;;7.13;1.60;;;;;;;15.76;58.05;100961.38;5073566;28;20433;-54
2022/08/20 02:00:08;;;;;;;4.97;1.63;;;;;;;15.73;58.90;100962.63;5074013;28;20036;-49
2022/08/20 02:02:34;;;;;;;7.85;1.00;;;;;;;15.70;57.72;100957.63;5056228;28;20373;-49
2022/08/20 02:04:59;;;;;;;5.68;1.17;;;;;;;15.67;57.42;100968.88;5073117;28;20020;-51
2022/08/20 02:07:25;;;;;;;5.70;1.27;;;;;;;15.58;58.12;100956.63;5056890;28;20059;-54
2022/08/20 02:09:52;;;;;;;5.72;1.30;;;;;;;15.58;58.32;100967.47;5073616;28;20029;-52
2022/08/20 02:12:18;;;;;;;4.32;1.20;;;;;;;15.51;57.39;100958.53;5073317;28;20032;-53
2022/08/20 02:14:50;;;;;;;5.45;1.33;;;;;;;15.51;58.43;100962.09;5056228;28;20074;-54
2022/08/20 02:17:17;;;;;;;4.50;1.33;;;;;;;15.49;58.84;100959.59;5074098;28;20389;-50
2022/08/20 02:19:48;;;;;;;8.60;1.60;;;;;;;15.47;58.28;100966.25;5074475;28;20029;-52
2022/08/20 02:22:22;;;;;;;6.25;1.48;;;;;;;15.47;58.52;100963.53;5074209;28;20457;-52
2022/08/20 02:24:48;;;;;;;;;;;;;;;15.43;60.54;100967.72;5056756;28;20040;-49
2022/08/20 02:27:14;;;;;;;8.43;1.58;;;;;;;15.36;59.04;100961.50;5074126;28;19908;-49
2022/08/20 02:29:40;;;;;;;9.18;1.50;;;;;;;15.31;58.54;100955.91;5072403;28;20033;-49
2022/08/20 02:32:07;;;;;;;5.38;1.25;;;;;;;15.33;59.76;100972.75;5055854;28;20079;-49
2022/08/20 02:34:34;;;;;;;5.80;1.25;;;;;;;15.30;60.13;100963.19;5074112;28;20033;-52
2022/08/20 02:37:01;;;;;;;8.48;1.67;;;;;;;15.19;60.27;100953.00;5073783;28;20169;-49
2022/08/20 02:39:27;;;;;;;6.00;1.25;;;;;;;15.19;60.12;100961.13;5073931;28;20024;-49
2022/08/20 02:41:53;;;;;;;7.45;1.40;;;;;;;15.10;60.30;100953.25;5073956;28;20024;-50
2022/08/20 02:44:19;;;;;;;5.60;1.33;;;;;;;15.20;60.80;100960.91;5073588;28;20040;-52
2022/08/20 02:46:48;;;;;;;6.75;1.45;;;;;;;15.16;61.20;100965.09;5074026;28;20103;-54
2022/08/20 02:49:16;;;;;;;6.68;1.30;;;;;;;15.01;59.92;100942.88;5055867;28;20039;-52
2022/08/20 02:51:43;;;;;;;6.13;1.55;;;;;;;15.12;61.76;100966.56;5073918;28;20128;-52
2022/08/20 02:54:09;;;;;;;8.57;1.40;;;;;;;15.08;60.77;100965.31;5056422;28;20032;-52
2022/08/20 02:56:35;;;;;;;9.82;1.30;;;;;;;14.99;61.17;100951.19;5055903;28;20028;-53
2022/08/20 02:59:01;;;;;;;7.40;1.50;;;;;;;15.04;61.18;100967.63;5074837;28;20086;-48
2022/08/20 03:01:27;;;;;;;10.10;1.42;;;;;;;14.93;60.93;100943.91;5073360;28;20037;-50
2022/08/20 03:03:56;;;;;;;7.00;1.70;;;;;;;15.00;61.00;100960.13;5072255;28;20028;-49
2022/08/20 03:06:22;;;;;;;5.38;1.30;;;;;;;15.01;60.55;100965.34;5074416;28;20028;-50
2022/08/20 03:08:49;;;;;;;8.68;1.42;;;;;;;14.95;60.79;100949.09;5074386;28;20095;-52
2022/08/20 03:11:15;;;;;;;9.40;1.45;;;;;;;14.90;61.79;100942.47;5073999;28;20483;-49
2022/08/20 03:13:40;;;;;;;7.38;1.60;;;;;;;14.93;61.38;100956.59;5074454;28;20063;-50
2022/08/20 03:16:07;;;;;;;9.88;1.55;;;;;;;14.87;61.63;100947.47;5074350;28;20111;-49
2022/08/20 03:18:37;;;;;;;10.43;1.50;;;;;;;14.86;62.06;100943.09;5055705;28;20036;-49
2022/08/20 03:21:05;;;;;;;8.57;1.58;;;;;;;14.82;61.69;100944.53;5058997;28;20528;-50
2022/08/20 03:23:32;;;;;;;5.80;1.30;;;;;;;14.84;61.31;100951.44;5078394;28;20032;-52
2022/08/20 03:25:59;;;;;;;9.20;1.67;;;;;;;14.85;61.48;100955.78;5078928;28;20024;-50
2022/08/20 03:28:25;;;;;;;9.93;1.40;;;;;;;14.83;62.17;100963.25;5077206;28;20056;-52
2022/08/20 03:30:52;;;;;;;5.72;1.45;;;;;;;14.76;61.56;100945.38;5061371;28;20090;-49
2022/08/20 03:33:19;;;;;;;4.80;1.30;;;;;;;14.80;62.55;100962.84;5078047;28;20086;-50
2022/08/20 03:35:46;;;;;;;7.18;1.23;;;;;;;14.76;62.17;100965.13;5078026;28;20032;-49
2022/08/20 03:38:14;;;;;;;8.07;1.60;;;;;;;14.72;62.00;100953.09;5077456;28;20039;-49
2022/08/20 03:40:40;;;;;;;4.53;1.20;;;;;;;14.66;61.38;100948.53;5076187;28;20346;-52
2022/08/20 03:43:07;;;;;;;6.85;1.15;;;;;;;14.67;61.91;100950.16;5058792;28;20041;-55
2022/08/20 03:45:34;;;;;;;5.00;0.90;;;;;;;14.51;62.38;100946.00;5077125;28;20107;-53
2022/08/20 03:48:00;;;;;;;4.35;1.13;;;;;;;14.46;62.23;100943.09;5077079;28;20036;-50
2022/08/20 03:50:31;;;;;;;7.30;1.67;;;;;;;14.42;63.76;100950.78;5076745;28;20110;-54
2022/08/20 03:52:58;;;;;;;6.22;1.38;;;;;;;14.22;63.26;100928.31;5077224;28;20024;-51
2022/08/20 03:55:26;;;;;;;9.15;1.58;;;;;;;14.32;63.93;100955.78;5076738;28;20033;-49
2022/08/20 03:57:56;;;;;;;12.07;1.33;;;;;;;14.30;64.78;100957.81;5076584;28;20477;-49
2022/08/20 04:00:28;;;;;;;5.35;1.50;;;;;;;14.09;64.82;100932.66;5075787;28;20028;-50
2022/08/20 04:02:55;;;;;;;5.40;1.52;;;;;;;14.18;65.16;100949.50;5076793;28;20136;-50
2022/08/20 04:05:24;;;;;;;8.32;1.80;;;;;;;14.07;64.91;100947.41;5058574;28;20036;-49
2022/08/20 04:07:50;;;;;;;10.30;1.80;;;;;;;14.15;64.19;100939.09;5075267;28;20090;-49
2022/08/20 04:10:17;;;;;;;5.13;1.63;;;;;;;14.20;63.74;100941.19;5076467;28;20017;-50
2022/08/20 04:12:42;;;;;;;11.45;1.73;;;;;;;14.23;64.80;100951.59;5076278;28;20111;-49
2022/08/20 04:15:13;;;;;;;8.02;1.38;;;;;;;14.18;65.29;100949.50;5075283;28;20421;-51
2022/08/20 04:17:41;;;;;;;8.75;1.70;;;;;;;14.16;65.60;100959.69;5059199;28;20377;-49
2022/08/20 04:20:09;;;;;;;9.57;1.52;;;;;;;14.21;65.21;100959.06;5076402;28;20025;-50
2022/08/20 04:22:35;;;;;;;4.40;1.00;;;;;;;14.10;65.62;100945.13;5076420;28;20033;-49
2022/08/20 04:25:03;;;;;;;8.68;1.95;;;;;;;14.08;65.47;100946.38;5076123;28;20471;-50
2022/08/20 04:27:31;;;;;;;5.05;1.10;;;;;;;14.17;64.78;100964.06;5058269;28;20093;-50
2022/08/20 04:29:59;;;;;;;7.03;1.55;;;;;;;14.21;65.71;100961.75;5076055;28;20068;-49
2022/08/20 04:32:25;;;;;;;8.55;1.73;;;;;;;14.16;65.89;100964.25;5075496;28;20035;-50
2022/08/20 04:34:51;;;;;;;9.40;1.50;;;;;;;14.18;65.76;100963.00;5058243;28;20025;-50
2022/08/20 04:37:20;;;;;;;10.82;1.63;;;;;;;14.20;64.97;100966.34;5058019;28;20422;-51
2022/08/20 04:40:52;;;;;;;4.43;1.10;;;;;;;14.18;65.64;100962.19;5076111;28;20041;-50
2022/08/20 04:42:33;;;;;;;5.93;1.30;;;;;;;13.98;66.12;100946.75;5061196;28;20040;-52
2022/08/20 04:44:59;;;;;;;9.13;1.42;;;;;;;14.00;66.37;100958.19;5057832;28;20034;-50
2022/08/20 04:47:25;;;;;;;5.75;1.33;;;;;;;13.99;66.18;100961.09;5075811;28;20033;-49
2022/08/20 04:49:51;;;;;;;4.63;1.20;;;;;;;13.90;66.91;100952.34;5075689;28;20469;-47
2022/08/20 04:52:16;;;;;;;3.30;1.23;;;;;;;13.96;65.94;100953.41;5057878;28;20160;-49
2022/08/20 04:54:42;;;;;;;4.30;1.10;;;;;;;14.00;65.96;100977.09;5074813;28;20028;-49
2022/08/20 04:57:08;;;;;;;5.03;1.00;;;;;;;13.93;66.62;100974.38;5076155;28;20052;-48
2022/08/20 04:59:34;;;;;;;6.00;1.38;;;;;;;13.95;66.00;100971.47;5076051;28;20068;-51
2022/08/20 05:02:01;;;;;;;5.70;1.30;;;;;;;13.94;66.49;100978.72;5075838;28;20087;-52
2022/08/20 05:04:27;;;;;;;5.68;1.30;;;;;;;13.94;65.98;100986.84;5058083;28;20090;-52
2022/08/20 05:06:53;;;;;;;5.80;1.15;;;;;;;13.80;66.46;100958.16;5074740;28;20461;-49
2022/08/20 05:09:18;;;;;;;2.53;0.90;;;;;;;13.90;66.06;100982.06;5075869;28;20029;-50
2022/08/20 05:11:44;;;;;;;6.45;1.20;;;;;;;13.85;66.16;100981.81;5074332;28;20047;-49
2022/08/20 05:14:11;;;;;;;3.42;1.17;;;;;;;13.79;67.02;100977.25;5075568;28;20124;-52
2022/08/20 05:16:38;;;;;;;10.48;1.77;;;;;;;13.74;67.94;100981.38;5057644;28;20060;-53
2022/08/20 05:19:05;;;;;;;6.55;1.02;;;;;;;13.80;67.22;100987.00;5076153;28;20407;-53
2022/08/20 05:21:31;;;;;;;4.53;1.67;;;;;;;13.80;67.58;100987.84;5040895;28;20039;-49
2022/08/20 05:23:57;;;;;;;8.80;1.38;;;;;;;13.82;67.57;100991.16;5075268;28;20032;-53
2022/08/20 05:26:25;;;;;;;8.20;1.30;;;;;;;13.79;66.94;100993.44;5075732;28;20097;-54
2022/08/20 05:28:51;;;;;;;6.50;1.20;;;;;;;13.79;67.48;100988.88;5058029;28;20127;-52
2022/08/20 05:31:16;;;;;;;3.85;0.80;;;;;;;13.87;67.17;100996.81;5077133;28;20020;-53
2022/08/20 05:33:42;;;;;;;5.65;1.45;;;;;;;13.87;67.57;100993.25;5079957;28;20032;-55
2022/08/20 05:36:08;;;;;;;5.95;1.55;;;;;;;13.94;66.71;100994.09;5078954;28;20119;-54
2022/08/20 05:38:35;;;;;;;10.73;1.48;;;;;;;13.91;68.06;100992.66;5077806;28;20111;-55
2022/08/20 05:41:01;;;;;;;8.95;1.63;;;;;;;14.00;66.95;101001.38;5077241;28;20029;-54
2022/08/20 05:43:27;;;;;;;6.13;1.48;;;;;;;14.02;67.45;100995.78;5076906;28;20103;-55
2022/08/20 05:45:53;;;;;;;3.67;0.90;;;;;;;14.01;67.21;101004.94;5077559;28;20070;-53
2022/08/20 05:48:21;;;;;;;5.63;1.15;;;;;;;14.05;66.81;101012.41;5056682;28;20039;-51
2022/08/20 05:50:49;;;;;;;7.40;1.25;;;;;;;14.05;67.41;101017.81;5074454;28;20056;-50
2022/08/20 05:53:17;;;;;;;6.75;1.13;;;;;;;13.98;68.02;101018.84;5074771;28;20461;-53
2022/08/20 05:55:44;;;;;;;5.50;1.27;;;;;;;14.00;67.72;101017.59;5056674;28;20086;-53
2022/08/20 05:58:17;;;;;;;4.15;1.20;;;;;;;14.00;68.03;101022.16;5074455;28;20086;-51
2022/08/20 06:00:43;;;;;;;8.05;0.95;;;;;;;13.94;68.02;100997.63;5056265;28;20029;-50
2022/08/20 06:05:54;;;;;;;8.88;2.13;;;;;;;14.12;68.69;101015.97;5059669;28;20508;-49
2022/08/20 06:08:20;;;;;;;11.80;2.17;;;;;;;14.06;69.17;101007.84;5056625;28;20033;-50
2022/08/20 06:10:46;;;;;;;4.32;1.42;;;;;;;14.15;68.78;101009.31;5074709;28;20465;-51
2022/08/20 06:13:12;;;;;;;9.55;1.55;;;;;;;14.13;69.01;101004.16;5056427;28;20392;-52
2022/08/20 06:15:38;;;;;;;7.38;1.85;;;;;;;14.20;68.75;100993.34;5074481;28;20457;-51
2022/08/20 06:18:06;;;;;;;5.63;1.60;;;;;;;14.27;68.93;101004.19;5072927;28;20051;-49
2022/08/20 06:20:34;;;;;;;7.68;1.85;;;;;;;14.32;68.85;100999.00;5073171;28;20024;-51
2022/08/20 06:23:00;;;;;;;9.45;1.75;;;;;;;14.38;69.12;101008.97;5074007;28;20101;-50
2022/08/20 06:25:25;;;;;;;9.88;1.75;;;;;;;14.43;69.08;101006.50;5074219;28;20066;-51
2022/08/20 06:27:51;;;;;;;4.97;1.33;;;;;;;14.50;69.29;101003.78;5056365;28;20112;-50
2022/08/20 06:30:17;;;;;;;10.10;2.15;;;;;;;14.50;69.81;101001.94;5073780;28;20060;-52
2022/08/20 06:32:44;;;;;;;9.05;2.03;;;;;;;14.52;69.85;100999.84;5074265;28;20029;-49
2022/08/20 06:35:10;;;;;;;6.20;1.60;;;;;;;14.59;69.35;101010.69;5056055;28;20082;-49
2022/08/20 06:37:38;;;;;;;10.88;1.85;;;;;;;14.70;68.49;101020.06;5073996;28;20119;-50
2022/08/20 06:40:15;;;;;;;6.60;1.52;;;;;;;14.73;69.01;101011.53;5055686;28;20037;-53
2022/08/20 06:42:43;;;;;;;4.80;1.58;;;;;;;14.75;69.44;101022.97;5072455;28;20091;-49
2022/08/20 06:45:12;;;;;;;8.52;1.65;;;;;;;14.84;69.36;101027.13;5073651;28;20036;-51
2022/08/20 06:47:40;;;;;;;7.72;1.67;;;;;;;14.93;68.09;101027.75;5074037;28;20025;-49
2022/08/20 06:50:10;;;;;;;8.57;1.83;;;;;;;14.96;67.68;101016.50;5073581;28;20039;-53
2022/08/20 06:52:38;;;;;;;10.60;2.50;;;;;;;15.06;67.86;101025.06;5073719;28;20481;-52
2022/08/20 06:55:05;;;;;;;7.10;2.00;;;;;;;15.16;68.88;101032.72;5076399;28;20032;-51
2022/08/20 06:57:31;;;;;;;11.30;1.92;;;;;;;15.23;67.64;101028.16;5062709;28;20085;-49
2022/08/20 06:59:57;;;;;;;9.18;2.20;;;;;;;15.32;68.17;101033.31;5080249;28;20464;-54
2022/08/20 07:02:23;;;;;;;7.55;1.60;;;;;;;15.33;66.90;101027.72;5062368;28;20028;-51
2022/08/20 07:04:49;;;;;;;13.75;2.28;;;;;;;15.40;67.58;101025.00;5062394;28;20036;-49
2022/08/20 07:07:17;;;;;;;8.68;1.67;;;;;;;15.45;67.57;101034.16;5079963;28;20024;-53
2022/08/20 07:09:43;;;;;;;11.32;1.90;;;;;;;15.51;67.86;101037.88;5080930;28;20047;-53
2022/08/20 07:12:09;;;;;;;8.80;1.50;;;;;;;15.50;66.81;101022.66;5062342;28;20024;-53
2022/08/20 07:14:35;;;;;;;13.48;2.10;;;;;;;15.62;67.71;101030.94;5080320;28;20031;-52
2022/08/20 07:17:03;;;;;;;14.50;2.08;;;;;;;15.51;67.71;101009.97;5080218;28;20032;-53
2022/08/20 07:19:30;;;;;;;14.10;2.55;;;;;;;15.67;67.31;101026.59;5079949;28;20111;-49
2022/08/20 07:21:57;;;;;;;12.15;1.75;;;;;;;15.70;67.37;101021.78;5080828;28;20032;-53
2022/08/20 07:24:22;;;;;;;7.15;1.90;;;;;;;15.80;66.97;101027.59;5080890;28;20408;-52
2022/08/20 07:26:50;;;;;;;3.65;1.17;;;;;;;15.86;66.47;101024.03;5080560;28;20036;-49
2022/08/20 07:29:17;;;;;;;5.45;1.60;;;;;;;15.94;66.89;101021.09;5080482;28;20107;-53
2022/08/20 07:34:30;;;;;;;9.10;2.17;;;;;;;16.05;66.61;101008.75;5065036;28;20033;-52
2022/08/20 07:36:59;;;;;;;7.22;1.90;;;;;;;16.17;66.22;101020.53;5079941;28;20044;-50
2022/08/20 07:39:25;;;;;;;10.63;2.30;;;;;;;16.26;66.13;101023.84;5079717;28;20549;-55
2022/08/20 07:42:01;;;;;;;21.27;2.17;;;;;;;16.42;66.17;101031.47;5062653;28;20024;-55
2022/08/20 07:44:29;;;;;;;12.73;2.20;;;;;;;16.54;65.17;101030.75;5080621;28;20032;-53
2022/08/20 07:46:57;;;;;;;4.50;1.50;;;;;;;16.68;64.70;101026.91;5080496;28;20112;-50
2022/08/20 07:49:22;;;;;;;15.65;2.42;;;;;;;17.21;63.64;101037.31;5081140;28;20033;-53
2022/08/20 07:51:48;;;;;;;13.25;2.38;;;;;;;17.20;63.07;101015.84;5081954;28;20469;-52
2022/08/20 07:54:14;;;;;;;12.95;2.42;;;;;;;17.34;63.55;101041.78;5081574;28;20048;-49
2022/08/20 07:56:40;;;;;;;13.77;2.08;;;;;;;17.49;62.31;101018.88;5080333;28;20024;-51
2022/08/20 07:59:05;;;;;;;8.82;2.35;;;;;;;17.52;62.06;101027.41;5062233;28;20040;-49
2022/08/20 08:01:31;;;;;;;10.25;2.33;;;;;;;17.53;62.00;101025.50;5061953;28;20024;-50
2022/08/20 08:04:02;;;;;;;13.73;2.45;;;;;;;17.38;62.01;101024.00;5080017;28;20515;-50
2022/08/20 08:06:29;;;;;;;13.20;2.08;;;;;;;17.51;61.50;101025.72;5077011;28;20028;-53
2022/08/20 08:08:55;;;;;;;9.98;2.13;;;;;;;17.55;61.76;101029.66;5061035;28;20111;-53
2022/08/20 08:11:22;;;;;;;10.43;1.80;;;;;;;17.52;61.58;100996.69;5076366;28;20025;-51
2022/08/20 08:13:47;;;;;;;7.88;2.10;;;;;;;17.76;60.81;101016.69;5076914;28;20028;-50
2022/08/20 08:16:14;;;;;;;9.15;1.98;;;;;;;17.73;60.86;101017.94;5058895;28;20134;-51
2022/08/20 08:18:47;;;;;;;12.15;2.38;;;;;;;17.98;60.21;101012.44;5076523;28;20040;-50
2022/08/20 08:21:15;;;;;;;13.95;2.08;;;;;;;17.94;60.27;101016.69;5076586;28;20484;-50
2022/08/20 08:23:43;;;;;;;6.22;1.95;;;;;;;18.12;59.82;101013.09;5058932;28;20032;-51
2022/08/20 08:26:10;;;;;;;6.20;1.80;;;;;;;18.30;58.96;101012.22;5058598;28;20025;-51
2022/08/20 08:28:36;;;;;;;8.70;2.15;;;;;;;18.65;58.14;101006.03;5077255;28;20040;-51
2022/08/20 08:31:02;;;;;;;9.60;1.80;;;;;;;18.99;57.23;101002.78;5076136;28;20028;-49
2022/08/20 08:33:31;;;;;;;10.07;2.40;;;;;;;19.02;56.89;101000.44;5075687;28;20028;-49
2022/08/20 08:36:04;;;;;;;14.70;2.17;;;;;;;18.94;57.16;101014.38;5078512;28;20033;-53
2022/08/20 08:38:33;;;;;;;13.00;2.53;;;;;;;19.22;56.22;101010.94;5078069;28;20038;-49
2022/08/20 08:41:28;;;;;;;5.82;1.92;;;;;;;19.19;56.42;101018.78;5078059;28;20043;-48
2022/08/20 08:44:03;;;;;;;6.22;2.20;;;;;;;19.29;56.08;101013.53;5078840;28;20028;-52
2022/08/20 08:46:31;;;;;;;5.78;1.92;;;;;;;19.33;55.92;101020.16;5078107;28;20396;-49
2022/08/20 08:49:00;;;;;;;11.30;2.53;;;;;;;19.37;54.96;101007.75;5059479;28;20028;-48
2022/08/20 08:51:36;;;;;;;8.25;2.50;;;;;;;19.52;55.05;101015.44;5077148;28;20088;-51
2022/08/20 08:54:04;;;;;;;8.05;2.40;;;;;;;19.79;54.36;101006.72;5080638;28;20040;-50
2022/08/20 08:56:30;;;;;;;8.50;2.72;;;;;;;19.94;53.93;101000.75;5062949;28;20039;-49
2022/08/20 08:59:03;;;;;;;6.13;1.52;;;;;;;19.99;53.50;100996.22;5062821;28;20036;-51
2022/08/20 09:01:32;;;;;;;6.22;1.92;;;;;;;20.25;52.83;101005.72;5078228;28;20035;-50
2022/08/20 09:03:58;;;;;;;7.55;2.33;;;;;;;20.43;52.13;100998.38;5079995;28;20058;-52
2022/08/20 09:06:25;;;;;;;6.43;1.90;;;;;;;20.80;51.38;100996.03;5076975;28;20024;-49
2022/08/20 09:08:55;;;;;;;10.48;2.13;;;;;;;21.00;50.53;101000.97;5075941;28;20082;-50
2022/08/20 09:11:23;;;;;;;5.70;1.92;;;;;;;22.32;47.43;100994.72;5074836;28;20028;-50
2022/08/20 09:13:48;;;;;;;6.78;1.52;;;;;;;21.89;48.38;100988.22;5057852;28;20020;-51
2022/08/20 09:16:15;;;;;;;7.47;2.40;;;;;;;21.34;49.80;100995.47;5074252;28;20036;-49
2022/08/20 09:18:41;;;;;;;8.40;2.22;;;;;;;21.10;49.59;100996.75;5075962;28;20035;-51
2022/08/20 09:21:07;;;;;;;14.65;1.80;;;;;;;22.04;48.31;100993.03;5058445;28;20065;-51
2022/08/20 09:23:33;;;;;;;9.73;1.98;;;;;;;22.11;47.07;100988.19;5075635;28;20024;-51
2022/08/20 09:25:59;;;;;;;8.98;2.05;;;;;;;23.44;45.14;100987.59;5075958;28;20028;-53
2022/08/20 09:28:25;;;;;;;10.88;1.80;;;;;;;25.01;41.58;100999.13;5075538;28;20111;-54
2022/08/20 09:30:51;;;;;;;5.82;1.52;;;;;;;25.71;39.68;100984.66;5075072;28;20086;-49
2022/08/20 09:33:17;;;;;;;3.45;1.35;;;;;;;27.10;38.96;100972.59;5075122;28;20040;-51
2022/08/20 09:35:45;;;;;;;6.25;1.40;;;;;;;26.69;38.96;100979.34;5074816;28;20032;-50
2022/08/20 09:38:11;;;;;;;8.38;1.63;;;;;;;26.25;37.87;100981.03;5075369;28;20035;-55
2022/08/20 09:40:37;;;;;;;4.97;1.60;;;;;;;24.97;39.72;100975.25;5057599;28;20089;-54
2022/08/20 09:43:05;;;;;;;3.55;1.63;;;;;;;25.66;39.27;100974.47;5073895;28;20020;-53
2022/08/20 09:45:31;;;;;;;5.03;1.45;;;;;;;24.49;40.55;100987.34;5075200;28;20032;-54
2022/08/20 09:47:57;;;;;;;4.68;1.70;;;;;;;23.87;42.04;100982.88;5075209;28;20039;-50
2022/08/20 09:50:25;;;;;;;11.80;2.22;;;;;;;23.18;43.21;100965.56;5056573;28;20028;-54
2022/08/20 09:52:52;;;;;;;8.85;2.83;;;;;;;24.86;40.08;100988.19;5056597;28;20034;-51
2022/08/20 09:55:38;;;;;;;7.03;2.70;;;;;;;25.81;38.17;100979.09;5073541;28;20032;-51
2022/08/20 09:58:18;;;;;;;6.50;2.20;;;;;;;26.88;35.99;100965.66;5073739;28;20059;-51
2022/08/20 10:00:43;;;;;;;6.53;2.00;;;;;;;27.42;35.72;100960.94;5074468;28;20033;-53
2022/08/20 10:03:09;;;;;;;9.80;1.95;;;;;;;25.63;38.37;100960.47;5056423;28;20028;-54
2022/08/20 10:05:35;;;;;;;4.18;1.27;;;;;;;24.68;40.58;100964.84;5056680;28;20029;-53
2022/08/20 10:08:05;;;;;;;7.63;2.47;;;;;;;23.98;41.17;100951.63;5056738;28;20515;-54
2022/08/20 10:10:31;;;;;;;8.90;2.20;;;;;;;23.43;42.16;100969.50;5074166;28;20059;-55
2022/08/20 10:12:57;;;;;;;5.57;1.65;;;;;;;23.07;43.14;100963.81;5074056;28;20028;-54
2022/08/20 10:15:23;;;;;;;7.90;1.77;;;;;;;22.93;44.08;100969.75;5074829;28;20029;-51
2022/08/20 10:17:48;;;;;;;7.40;1.83;;;;;;;23.47;42.25;100959.66;5074122;28;20032;-51
2022/08/20 10:20:17;;;;;;;7.60;1.60;;;;;;;25.38;39.29;100948.50;5073326;28;20033;-54
2022/08/20 10:22:43;;;;;;;8.50;1.73;;;;;;;25.10;38.49;100937.00;5074718;28;20024;-50
2022/08/20 10:25:10;;;;;;;5.97;1.75;;;;;;;24.90;39.32;100950.81;5055928;28;20047;-50
2022/08/20 10:27:36;;;;;;;8.40;1.77;;;;;;;24.45;40.11;100945.06;5074231;28;20028;-51
2022/08/20 10:30:04;;;;;;;5.93;1.67;;;;;;;26.08;37.08;100944.84;5073752;28;20039;-55
2022/08/20 10:32:30;;;;;;;6.93;1.55;;;;;;;26.74;36.42;100937.94;5056369;28;20035;-50
2022/08/20 10:34:56;;;;;;;6.07;2.15;;;;;;;26.60;36.58;100937.00;5056177;28;20040;-55
2022/08/20 10:37:24;;;;;;;8.18;1.67;;;;;;;27.34;36.11;100921.06;5056359;28;20029;-54
2022/08/20 10:39:50;;;;;;;6.00;1.70;;;;;;;29.06;33.51;100929.91;5074142;28;20054;-51
2022/08/20 10:42:16;;;;;;;4.78;1.50;;;;;;;28.87;33.26;100924.50;5055983;28;20443;-49
2022/08/20 10:44:42;;;;;;;5.78;1.42;;;;;;;28.72;32.97;100929.19;5074206;28;20028;-54
2022/08/20 10:47:30;;;;;;;6.38;1.73;;;;;;;29.68;31.31;100916.44;5073962;28;20033;-53
2022/08/20 10:49:58;;;;;;;6.03;1.33;;;;;;;28.63;32.84;100914.41;5074264;28;20036;-54
2022/08/20 10:52:25;;;;;;;4.72;1.35;;;;;;;27.81;33.81;100913.78;5052392;28;20060;-52
2022/08/20 10:54:52;;;;;;;6.28;1.50;;;;;;;28.38;33.19;100910.16;5053735;28;20112;-53
2022/08/20 10:57:22;;;;;;;3.67;1.52;;;;;;;30.61;30.53;100911.44;5053869;28;20496;-51
2022/08/20 10:59:50;;;;;;;3.50;1.27;;;;;;;31.01;29.79;100901.19;5054515;28;20449;-53
2022/08/20 11:02:16;;;;;;;6.43;1.77;;;;;;;32.43;26.82;100896.25;5053961;28;20033;-51
2022/08/20 11:04:42;;;;;;;3.28;1.50;;;;;;;30.62;28.64;100888.94;5053811;28;20053;-50
2022/08/20 11:07:11;;;;;;;4.20;1.67;;;;;;;29.90;30.91;100901.84;5053803;28;20497;-50
2022/08/20 11:09:37;;;;;;;4.68;1.35;;;;;;;29.50;30.77;100884.22;5054119;28;20039;-48
2022/08/20 11:12:04;;;;;;;3.25;1.20;;;;;;;28.86;32.62;100909.84;5035850;28;20111;-49
2022/08/20 11:14:30;;;;;;;3.90;1.33;;;;;;;27.67;32.22;100903.78;5053886;28;20033;-48
2022/08/20 11:16:56;;;;;;;4.35;1.42;;;;;;;29.55;29.32;100903.47;5053209;28;20108;-50
2022/08/20 11:19:21;;;;;;;1.98;1.17;;;;;;;30.73;28.29;100894.22;5053465;28;20064;-48
2022/08/20 11:21:47;;;;;;;5.43;1.20;;;;;;;30.69;27.60;100897.63;5069202;28;20033;-50
2022/08/20 11:24:13;;;;;;;4.15;1.48;;;;;;;29.94;29.16;100901.22;5053651;28;20071;-50
2022/08/20 11:26:39;;;;;;;6.13;1.55;;;;;;;30.58;27.76;100906.56;5053511;28;20033;-49
2022/08/20 11:29:05;;;;;;;3.25;1.13;;;;;;;31.37;28.54;100897.38;5053536;28;20370;-50
2022/08/20 11:31:31;;;;;;;4.00;1.42;;;;;;;30.72;28.04;100892.56;5053064;28;20036;-52
2022/08/20 11:33:56;;;;;;;6.88;1.50;;;;;;;32.19;26.38;100883.69;5053828;28;20025;-52
2022/08/20 11:36:25;;;;;;;4.07;1.40;;;;;;;32.51;25.49;100881.50;5053872;28;20029;-49
2022/08/20 11:38:51;;;;;;;5.10;1.55;;;;;;;33.16;24.30;100886.97;5051731;28;20426;-48